Overview Statistics Trail Chart Weather Telemetry Raw packets
 

This is the latest recevied weather packets stored in our database for station/object IT9DBI-3. If no packets are shown the sender has not sent any weather packets the latest 10 day(s).

<< 23 24 25 26 27 28 29 >>
Time Temp. Humidity Pressure Rain* Wind** Luminosity Snow
1787863486 31.67° C 38% 1017.5 hPa - - - -
1787861083 30° C 53% 1017.5 hPa - - - -
1787859881 29.44° C 57% 1017.5 hPa - - - -
1787858680 30° C 59% 1017.4 hPa - - - -
1787857479 31.11° C 54% 1017.2 hPa - - - -
1787856277 31.11° C 58% 1016.7 hPa - - - -
1787855076 31.67° C 54% 1016.4 hPa - - - -
1787853875 31.11° C 54% 1016.2 hPa - - - -
1787852674 31.67° C 62% 1016.1 hPa - - - -
1787851472 34.44° C 53% 1015.9 hPa - - - -
1787850272 35° C 48% 1015.8 hPa - - - -
1787849070 36.67° C 39% 1015.5 hPa - - - -
1787847868 36.11° C 44% 1015.5 hPa - - - -
1787846673 39.44° C 35% 1015.3 hPa - - - -
1787845466 39.44° C 29% 1015.1 hPa - - - -
1787844265 39.44° C 27% 1015 hPa - - - -
1787843063 37.22° C 31% 1015.4 hPa - - - -
1787841862 36.11° C 40% 1015.5 hPa - - - -
1787840661 37.78° C 46% 1015.7 hPa - - - -
1787839452 38.89° C 37% 1015.4 hPa - - - -
1787838251 40.56° C 26% 1015 hPa - - - -
1787837050 42.22° C 22% 1014.7 hPa - - - -
1787835854 41.11° C 26% 1014.8 hPa - - - -
1787834647 40° C 28% 1014.9 hPa - - - -
1787833446 39.44° C 30% 1014.9 hPa - - - -

* Rain since midnight (hover to see other rain measurements)
** Current wind speed in m/s (hover to see current wind gust speed)